Camberley, United Kingdom
Current Conditions -  °F | °C
As of 7:20 PM on Sunday 21 Dec 2014 (Local Time) from EGLF Reporting Station
Broken Clouds Broken Clouds  
Wind Chill: 50°   Ceiling: 1000
Heat Index: 50°   Visibility: 6mi
Dew Point: 48°   Wind: 22mph
Humidity: 94%   Direction: 240°WSW
Pressure: 30.24"   Gusts: NA
Location:  51.34°N, 0.74°W
Report Text: EGLF 211920Z 24019KT 9999 BKN010 10/09 Q1024
Loading
Personal Weather Stations






























Interactive Weather Map New forecast layout! Learn more

10-Day Weather Forecast

Advertisements
Track Severe Weather on mobile